createdAt,value
2022-10-17T00:02:42.177Z,21.57
2022-10-17T00:07:34.745Z,21.57
2022-10-17T00:12:27.519Z,21.56
2022-10-17T00:17:20.146Z,21.55
2022-10-17T00:22:12.780Z,21.55
2022-10-17T00:27:05.413Z,21.54
2022-10-17T00:31:57.901Z,21.53
2022-10-17T00:36:50.524Z,21.53
2022-10-17T00:41:43.062Z,21.52
2022-10-17T00:46:35.626Z,21.49
2022-10-17T00:51:28.278Z,21.49
2022-10-17T00:56:20.841Z,21.48
2022-10-17T01:01:13.550Z,21.48
2022-10-17T01:06:06.011Z,21.48
2022-10-17T01:10:58.673Z,21.47
2022-10-17T01:15:51.139Z,21.45
2022-10-17T01:20:43.717Z,21.43
2022-10-17T01:25:36.072Z,21.43
2022-10-17T01:30:28.699Z,21.42
2022-10-17T01:35:21.353Z,21.43
2022-10-17T01:40:13.867Z,21.41
2022-10-17T01:45:06.711Z,21.41
2022-10-17T01:49:59.550Z,21.42
2022-10-17T01:54:52.030Z,21.4
2022-10-17T01:59:44.672Z,21.38
2022-10-17T02:04:37.278Z,21.39
2022-10-17T02:09:30.063Z,21.37
2022-10-17T02:14:22.758Z,21.36
2022-10-17T02:19:15.313Z,21.37
2022-10-17T02:24:08.141Z,21.36
2022-10-17T02:29:00.951Z,21.34
2022-10-17T02:33:53.127Z,21.33
2022-10-17T02:38:45.779Z,21.33
2022-10-17T02:43:38.358Z,21.33
2022-10-17T02:48:31.064Z,21.33
2022-10-17T02:53:23.497Z,21.32
2022-10-17T02:58:16.013Z,21.31
2022-10-17T03:03:08.330Z,21.3
2022-10-17T03:08:00.645Z,21.28
2022-10-17T03:12:53.342Z,21.28
2022-10-17T03:22:38.571Z,21.27
2022-10-17T03:27:31.732Z,21.26
2022-10-17T03:32:23.913Z,21.26
2022-10-17T03:37:16.667Z,21.26
2022-10-17T03:42:09.238Z,21.26
2022-10-17T03:47:01.840Z,21.27
2022-10-17T03:51:54.321Z,21.24
2022-10-17T03:56:47.005Z,21.25
2022-10-17T04:01:39.475Z,21.25
2022-10-17T04:06:31.994Z,21.23
2022-10-17T04:11:24.704Z,21.23
2022-10-17T04:16:17.245Z,21.23
2022-10-17T04:21:10.059Z,21.22
2022-10-17T04:26:02.756Z,21.24
2022-10-17T04:30:55.409Z,21.23
2022-10-17T04:35:47.993Z,21.2
2022-10-17T04:40:40.554Z,21.21
2022-10-17T04:45:33.158Z,21.22
2022-10-17T04:50:25.919Z,21.53
2022-10-17T04:55:18.926Z,21.64
2022-10-17T05:00:11.566Z,21.49
2022-10-17T05:05:04.187Z,21.71
2022-10-17T05:14:49.822Z,21.91
2022-10-17T05:24:35.224Z,22.05
2022-10-17T05:29:28.067Z,22.11
2022-10-17T05:34:20.683Z,21.91
2022-10-17T05:39:13.253Z,21.96
2022-10-17T05:44:05.770Z,21.8
2022-10-17T05:48:58.121Z,21.77
2022-10-17T05:53:50.657Z,21.79
2022-10-17T05:58:52.526Z,21.76
2022-10-17T06:03:35.852Z,21.69
2022-10-17T06:08:28.534Z,21.69
2022-10-17T06:13:21.207Z,21.65
2022-10-17T06:18:13.818Z,21.65
2022-10-17T06:23:06.394Z,21.61
2022-10-17T06:27:58.974Z,21.62
2022-10-17T06:32:51.405Z,21.57
2022-10-17T06:37:43.967Z,21.56
2022-10-17T06:42:36.525Z,21.55
2022-10-17T06:47:29.231Z,21.52
2022-10-17T06:52:21.528Z,21.48
2022-10-17T06:57:14.127Z,21.48
2022-10-17T07:02:06.934Z,21.46
2022-10-17T07:11:51.876Z,21.42
2022-10-17T07:16:44.307Z,21.41
2022-10-17T07:21:38.308Z,21.37
2022-10-17T07:26:29.627Z,21.37
2022-10-17T07:31:22.144Z,21.36
2022-10-17T07:36:14.859Z,21.36
2022-10-17T07:41:07.594Z,21.35
2022-10-17T07:46:00.454Z,21.35
2022-10-17T07:50:53.190Z,21.36
2022-10-17T07:55:45.820Z,21.39
2022-10-17T08:00:38.676Z,21.18
2022-10-17T08:05:30.833Z,20.98
2022-10-17T08:10:23.493Z,21.05
2022-10-17T08:15:15.942Z,20.99
2022-10-17T08:20:08.100Z,20.69
2022-10-17T08:25:00.924Z,21.11
2022-10-17T08:29:53.502Z,21.2
2022-10-17T08:34:46.235Z,21.28
2022-10-17T08:39:38.728Z,21.3
2022-10-17T08:44:31.007Z,21.21
2022-10-17T08:49:23.228Z,21
2022-10-17T08:54:15.806Z,21.19
2022-10-17T08:59:08.299Z,21.15
2022-10-17T09:04:00.920Z,21.26
2022-10-17T09:08:53.386Z,21.36
2022-10-17T09:13:46.408Z,21.45
2022-10-17T09:18:38.911Z,21.46
2022-10-17T09:23:31.566Z,21.54
2022-10-17T09:28:24.133Z,21.62
2022-10-17T09:33:34.036Z,21.72
2022-10-17T09:38:09.099Z,21.73
2022-10-17T09:43:01.717Z,21.73
2022-10-17T09:47:54.597Z,21.74
2022-10-17T09:52:47.277Z,21.75
2022-10-17T09:57:40.002Z,21.79
2022-10-17T10:02:33.246Z,21.81
2022-10-17T10:07:29.059Z,21.83
2022-10-17T10:12:18.088Z,21.86
2022-10-17T10:17:10.814Z,21.85
2022-10-17T10:22:03.604Z,21.87
2022-10-17T10:26:56.354Z,21.9
2022-10-17T10:31:48.952Z,21.92
2022-10-17T10:36:41.671Z,21.94
2022-10-17T10:41:34.292Z,21.96
2022-10-17T10:46:27.099Z,21.98
2022-10-17T10:51:20.049Z,22.04
2022-10-17T10:56:12.831Z,22.06
2022-10-17T11:01:05.464Z,22.1
2022-10-17T11:05:58.107Z,22.13
2022-10-17T11:10:50.859Z,22.15
2022-10-17T11:15:43.509Z,22.2
2022-10-17T11:20:36.190Z,22.22
2022-10-17T11:25:28.894Z,22.22
2022-10-17T11:30:21.579Z,22.26
2022-10-17T11:35:14.171Z,22.3
2022-10-17T11:40:06.819Z,22.3
2022-10-17T11:44:59.476Z,22.31
2022-10-17T11:49:52.312Z,22.33
2022-10-17T11:54:45.097Z,22.33
2022-10-17T11:59:37.345Z,22.33
2022-10-17T12:04:29.984Z,22.33
2022-10-17T12:09:22.793Z,22.4
2022-10-17T12:14:15.585Z,22.43
2022-10-17T12:19:08.356Z,22.53
2022-10-17T12:28:53.995Z,22.88
2022-10-17T12:38:39.359Z,23.08
2022-10-17T12:48:24.647Z,23.25
2022-10-17T12:58:09.785Z,23.3
2022-10-17T13:03:02.330Z,23.35
2022-10-17T13:07:55.014Z,23.36
2022-10-17T13:12:47.761Z,23.36
2022-10-17T13:17:43.002Z,23.4
2022-10-17T13:22:33.474Z,23.36
2022-10-17T13:27:25.980Z,23.39
2022-10-17T13:32:18.340Z,23.36
2022-10-17T13:37:10.930Z,23.39
2022-10-17T13:42:03.504Z,23.39
2022-10-17T13:46:56.275Z,23.37
2022-10-17T13:51:48.932Z,23.39
2022-10-17T13:56:41.507Z,23.38
2022-10-17T14:01:34.086Z,23.42
2022-10-17T14:06:26.728Z,23.36
2022-10-17T14:11:19.314Z,23.37
2022-10-17T14:16:12.101Z,23.39
2022-10-17T14:21:37.106Z,23.39
2022-10-17T14:25:57.370Z,23.37
2022-10-17T14:30:57.903Z,23.36
2022-10-17T14:35:42.824Z,23.36
2022-10-17T14:40:35.054Z,23.32
2022-10-17T14:45:27.800Z,23.31
2022-10-17T14:50:20.544Z,23.39
2022-10-17T14:55:13.462Z,23.36
2022-10-17T15:00:06.338Z,23.31
2022-10-17T15:04:59.083Z,23.31
2022-10-17T15:09:51.756Z,23.29
2022-10-17T15:14:44.507Z,23.29
2022-10-17T15:19:37.155Z,23.3
2022-10-17T15:24:29.797Z,23.29
2022-10-17T15:29:22.328Z,23.27
2022-10-17T15:34:14.989Z,23.27
2022-10-17T15:39:07.466Z,23.25
2022-10-17T15:43:59.718Z,23.23
2022-10-17T15:48:52.723Z,23.22
2022-10-17T15:53:45.409Z,23.2
2022-10-17T15:58:38.271Z,23.19
2022-10-17T16:03:31.003Z,23.17
2022-10-17T16:08:23.660Z,23.16
2022-10-17T16:13:16.394Z,23.13
2022-10-17T16:18:10.004Z,23.14
2022-10-17T16:23:01.652Z,23.1
2022-10-17T16:27:54.352Z,23.08
2022-10-17T16:32:46.952Z,23.04
2022-10-17T16:37:39.512Z,22.99
2022-10-17T16:42:32.488Z,22.94
2022-10-17T16:47:24.796Z,22.93
2022-10-17T16:52:17.375Z,22.91
2022-10-17T16:57:09.962Z,22.91
2022-10-17T17:02:02.464Z,22.9
2022-10-17T17:06:55.198Z,22.9
2022-10-17T17:11:47.974Z,22.87
2022-10-17T17:16:40.388Z,22.84
2022-10-17T17:21:33.070Z,22.82
2022-10-17T17:26:25.800Z,22.78
2022-10-17T17:31:18.616Z,22.76
2022-10-17T17:36:11.268Z,22.72
2022-10-17T17:41:03.810Z,22.7
2022-10-17T17:45:56.505Z,22.72
2022-10-17T17:50:49.026Z,22.7
2022-10-17T17:55:41.631Z,22.7
2022-10-17T18:05:26.880Z,22.68
2022-10-17T18:15:12.406Z,22.66
2022-10-17T18:20:05.041Z,22.65
2022-10-17T18:24:57.883Z,22.61
2022-10-17T18:29:50.707Z,22.62
2022-10-17T18:34:43.398Z,22.62
2022-10-17T18:39:36.175Z,22.62
2022-10-17T18:44:29.002Z,22.66
2022-10-17T18:49:21.243Z,22.65
2022-10-17T18:54:14.029Z,22.64
2022-10-17T18:59:06.704Z,22.63
2022-10-17T19:03:59.325Z,22.62
2022-10-17T19:08:51.929Z,22.62
2022-10-17T19:18:36.863Z,22.63
2022-10-17T19:23:29.618Z,22.61
2022-10-17T19:28:22.295Z,22.61
2022-10-17T19:33:14.879Z,22.58
2022-10-17T19:38:07.622Z,22.57
2022-10-17T19:43:00.308Z,22.53
2022-10-17T19:47:52.975Z,22.54
2022-10-17T19:52:45.447Z,22.53
2022-10-17T19:57:37.999Z,22.54
2022-10-17T20:02:30.957Z,22.53
2022-10-17T20:07:23.483Z,22.5
2022-10-17T20:12:16.263Z,22.5
2022-10-17T20:17:08.923Z,22.48
2022-10-17T20:22:01.506Z,22.49
2022-10-17T20:26:54.252Z,22.47
2022-10-17T20:31:46.753Z,22.45
2022-10-17T20:36:39.496Z,22.44
2022-10-17T20:41:32.010Z,22.43
2022-10-17T20:46:45.104Z,22.41
2022-10-17T20:51:17.568Z,22.41
2022-10-17T20:56:09.770Z,22.39
2022-10-17T21:01:02.361Z,22.39
2022-10-17T21:05:54.974Z,22.37
2022-10-17T21:10:47.641Z,22.35
2022-10-17T21:15:40.507Z,22.34
2022-10-17T21:20:33.156Z,22.34
2022-10-17T21:25:26.054Z,22.32
2022-10-17T21:30:18.592Z,22.33
2022-10-17T21:35:11.323Z,22.31
2022-10-17T21:40:03.966Z,22.29
2022-10-17T21:44:56.573Z,22.28
2022-10-17T21:49:49.166Z,22.28
2022-10-17T21:54:41.805Z,22.26
2022-10-17T21:59:34.467Z,22.27
2022-10-17T22:04:26.987Z,22.27
2022-10-17T22:09:19.672Z,22.26
2022-10-17T22:14:12.229Z,22.24
2022-10-17T22:19:06.049Z,22.25
2022-10-17T22:23:57.579Z,22.24
2022-10-17T22:28:50.365Z,22.23
2022-10-17T22:33:42.840Z,22.23
2022-10-17T22:38:35.406Z,22.23
2022-10-17T22:43:28.002Z,22.21
2022-10-17T22:48:20.564Z,22.2
2022-10-17T22:53:13.244Z,22.19
2022-10-17T22:58:05.895Z,22.19
2022-10-17T23:02:58.514Z,22.17
2022-10-17T23:07:50.929Z,22.17
2022-10-17T23:12:43.563Z,22.18
2022-10-17T23:17:35.882Z,22.17
2022-10-17T23:22:28.888Z,22.17
2022-10-17T23:27:21.286Z,22.16
2022-10-17T23:32:13.855Z,22.16
2022-10-17T23:37:06.454Z,22.15
2022-10-17T23:41:58.648Z,22.13
2022-10-17T23:51:44.100Z,22.14
2022-10-17T23:56:36.961Z,22.13
